sensor_id;sensor_type;location;lat;lon;timestamp;P1;durP1;ratioP1;P2;durP2;ratioP2
19903;SDS011;10114;50.970;4.962;2022-12-10T00:01:07;41.15;;;17.40;;
19903;SDS011;10114;50.970;4.962;2022-12-10T00:03:34;51.53;;;19.25;;
19903;SDS011;10114;50.970;4.962;2022-12-10T00:06:00;44.70;;;17.40;;
19903;SDS011;10114;50.970;4.962;2022-12-10T00:08:27;46.45;;;19.00;;
19903;SDS011;10114;50.970;4.962;2022-12-10T00:10:53;47.78;;;19.60;;
19903;SDS011;10114;50.970;4.962;2022-12-10T00:13:19;52.42;;;19.38;;
19903;SDS011;10114;50.970;4.962;2022-12-10T00:15:45;45.85;;;18.58;;
19903;SDS011;10114;50.970;4.962;2022-12-10T00:18:11;40.70;;;16.63;;
19903;SDS011;10114;50.970;4.962;2022-12-10T00:20:37;49.78;;;18.85;;
19903;SDS011;10114;50.970;4.962;2022-12-10T00:23:03;51.72;;;19.50;;
19903;SDS011;10114;50.970;4.962;2022-12-10T00:25:29;56.22;;;19.98;;
19903;SDS011;10114;50.970;4.962;2022-12-10T00:27:57;52.92;;;19.30;;
19903;SDS011;10114;50.970;4.962;2022-12-10T00:30:23;49.35;;;18.52;;
19903;SDS011;10114;50.970;4.962;2022-12-10T00:32:49;49.13;;;20.33;;
19903;SDS011;10114;50.970;4.962;2022-12-10T00:35:15;63.33;;;21.27;;
19903;SDS011;10114;50.970;4.962;2022-12-10T00:37:41;56.75;;;19.70;;
19903;SDS011;10114;50.970;4.962;2022-12-10T00:40:07;53.38;;;18.63;;
19903;SDS011;10114;50.970;4.962;2022-12-10T00:42:35;59.70;;;20.83;;
19903;SDS011;10114;50.970;4.962;2022-12-10T00:45:01;59.90;;;20.30;;
19903;SDS011;10114;50.970;4.962;2022-12-10T00:47:27;45.60;;;18.15;;
19903;SDS011;10114;50.970;4.962;2022-12-10T00:49:53;56.38;;;19.25;;
19903;SDS011;10114;50.970;4.962;2022-12-10T00:52:20;52.22;;;21.23;;
19903;SDS011;10114;50.970;4.962;2022-12-10T00:54:46;50.25;;;18.27;;
19903;SDS011;10114;50.970;4.962;2022-12-10T00:57:12;54.90;;;18.48;;
19903;SDS011;10114;50.970;4.962;2022-12-10T00:59:38;54.60;;;20.02;;
19903;SDS011;10114;50.970;4.962;2022-12-10T01:02:04;52.83;;;19.65;;
19903;SDS011;10114;50.970;4.962;2022-12-10T01:04:30;51.40;;;19.15;;
19903;SDS011;10114;50.970;4.962;2022-12-10T01:06:56;53.95;;;20.10;;
19903;SDS011;10114;50.970;4.962;2022-12-10T01:09:25;55.80;;;20.50;;
19903;SDS011;10114;50.970;4.962;2022-12-10T01:11:52;63.75;;;22.20;;
19903;SDS011;10114;50.970;4.962;2022-12-10T01:14:19;61.72;;;22.30;;
19903;SDS011;10114;50.970;4.962;2022-12-10T01:16:46;60.55;;;20.90;;
19903;SDS011;10114;50.970;4.962;2022-12-10T01:19:13;58.47;;;21.40;;
19903;SDS011;10114;50.970;4.962;2022-12-10T01:21:39;52.45;;;19.15;;
19903;SDS011;10114;50.970;4.962;2022-12-10T01:24:05;57.28;;;20.50;;
19903;SDS011;10114;50.970;4.962;2022-12-10T01:26:32;58.83;;;19.77;;
19903;SDS011;10114;50.970;4.962;2022-12-10T01:28:58;50.80;;;18.65;;
19903;SDS011;10114;50.970;4.962;2022-12-10T01:31:26;53.75;;;17.20;;
19903;SDS011;10114;50.970;4.962;2022-12-10T01:33:52;45.30;;;17.83;;
19903;SDS011;10114;50.970;4.962;2022-12-10T01:36:20;50.75;;;18.30;;
19903;SDS011;10114;50.970;4.962;2022-12-10T01:38:47;58.60;;;19.13;;
19903;SDS011;10114;50.970;4.962;2022-12-10T01:41:14;59.92;;;19.77;;
19903;SDS011;10114;50.970;4.962;2022-12-10T01:44:00;56.20;;;18.48;;
19903;SDS011;10114;50.970;4.962;2022-12-10T01:46:28;55.80;;;20.17;;
19903;SDS011;10114;50.970;4.962;2022-12-10T01:48:54;49.22;;;19.08;;
19903;SDS011;10114;50.970;4.962;2022-12-10T01:51:21;57.90;;;20.33;;
19903;SDS011;10114;50.970;4.962;2022-12-10T01:53:47;56.35;;;19.65;;
19903;SDS011;10114;50.970;4.962;2022-12-10T01:56:15;58.08;;;18.98;;
19903;SDS011;10114;50.970;4.962;2022-12-10T01:58:41;50.15;;;19.30;;
19903;SDS011;10114;50.970;4.962;2022-12-10T02:20:21;59.03;;;17.90;;
19903;SDS011;10114;50.970;4.962;2022-12-10T02:22:49;43.95;;;15.82;;
19903;SDS011;10114;50.970;4.962;2022-12-10T02:25:17;46.75;;;16.42;;
19903;SDS011;10114;50.970;4.962;2022-12-10T02:27:57;54.55;;;17.45;;
19903;SDS011;10114;50.970;4.962;2022-12-10T02:30:25;46.15;;;15.80;;
19903;SDS011;10114;50.970;4.962;2022-12-10T02:32:51;47.30;;;17.30;;
19903;SDS011;10114;50.970;4.962;2022-12-10T02:35:19;44.33;;;16.67;;
19903;SDS011;10114;50.970;4.962;2022-12-10T02:37:55;53.60;;;18.27;;
19903;SDS011;10114;50.970;4.962;2022-12-10T02:40:23;56.42;;;18.58;;
19903;SDS011;10114;50.970;4.962;2022-12-10T02:42:50;47.65;;;16.63;;
19903;SDS011;10114;50.970;4.962;2022-12-10T02:45:17;51.08;;;17.52;;
19903;SDS011;10114;50.970;4.962;2022-12-10T02:47:44;52.92;;;18.23;;
19903;SDS011;10114;50.970;4.962;2022-12-10T02:50:10;59.08;;;18.13;;
19903;SDS011;10114;50.970;4.962;2022-12-10T02:52:38;58.67;;;18.23;;
19903;SDS011;10114;50.970;4.962;2022-12-10T02:55:04;58.40;;;18.92;;
19903;SDS011;10114;50.970;4.962;2022-12-10T03:02:39;58.83;;;18.98;;
19903;SDS011;10114;50.970;4.962;2022-12-10T03:10:21;68.60;;;19.83;;
19903;SDS011;10114;50.970;4.962;2022-12-10T03:12:51;57.58;;;19.17;;
19903;SDS011;10114;50.970;4.962;2022-12-10T03:15:19;57.15;;;18.55;;
19903;SDS011;10114;50.970;4.962;2022-12-10T03:17:46;68.75;;;18.17;;
19903;SDS011;10114;50.970;4.962;2022-12-10T03:20:13;55.42;;;17.58;;
19903;SDS011;10114;50.970;4.962;2022-12-10T03:22:42;54.15;;;17.48;;
19903;SDS011;10114;50.970;4.962;2022-12-10T03:25:09;53.80;;;18.52;;
19903;SDS011;10114;50.970;4.962;2022-12-10T03:27:36;56.70;;;16.75;;
19903;SDS011;10114;50.970;4.962;2022-12-10T03:30:04;52.55;;;16.63;;
19903;SDS011;10114;50.970;4.962;2022-12-10T03:32:30;51.75;;;16.52;;
19903;SDS011;10114;50.970;4.962;2022-12-10T03:34:57;58.17;;;18.95;;
19903;SDS011;10114;50.970;4.962;2022-12-10T03:37:24;58.22;;;18.20;;
19903;SDS011;10114;50.970;4.962;2022-12-10T03:39:51;64.47;;;19.75;;
19903;SDS011;10114;50.970;4.962;2022-12-10T03:42:17;51.78;;;16.73;;
19903;SDS011;10114;50.970;4.962;2022-12-10T03:44:43;53.20;;;16.30;;
19903;SDS011;10114;50.970;4.962;2022-12-10T03:47:10;58.70;;;19.35;;
19903;SDS011;10114;50.970;4.962;2022-12-10T03:49:37;47.85;;;16.92;;
19903;SDS011;10114;50.970;4.962;2022-12-10T03:52:04;58.92;;;18.20;;
19903;SDS011;10114;50.970;4.962;2022-12-10T03:54:30;47.88;;;15.68;;
19903;SDS011;10114;50.970;4.962;2022-12-10T03:56:56;46.22;;;17.45;;
19903;SDS011;10114;50.970;4.962;2022-12-10T03:59:22;57.60;;;17.80;;
19903;SDS011;10114;50.970;4.962;2022-12-10T04:01:48;61.47;;;19.17;;
19903;SDS011;10114;50.970;4.962;2022-12-10T04:04:14;54.35;;;17.80;;
19903;SDS011;10114;50.970;4.962;2022-12-10T04:06:40;58.75;;;18.67;;
19903;SDS011;10114;50.970;4.962;2022-12-10T04:09:08;57.63;;;18.60;;
19903;SDS011;10114;50.970;4.962;2022-12-10T04:11:35;53.70;;;18.27;;
19903;SDS011;10114;50.970;4.962;2022-12-10T04:14:01;61.72;;;18.75;;
19903;SDS011;10114;50.970;4.962;2022-12-10T04:16:45;51.80;;;17.50;;
19903;SDS011;10114;50.970;4.962;2022-12-10T04:19:13;53.05;;;17.65;;
19903;SDS011;10114;50.970;4.962;2022-12-10T04:21:40;69.28;;;19.45;;
19903;SDS011;10114;50.970;4.962;2022-12-10T04:24:30;60.38;;;19.90;;
19903;SDS011;10114;50.970;4.962;2022-12-10T04:29:51;63.17;;;19.80;;
19903;SDS011;10114;50.970;4.962;2022-12-10T04:32:17;67.07;;;19.65;;
19903;SDS011;10114;50.970;4.962;2022-12-10T04:34:43;61.42;;;18.48;;
19903;SDS011;10114;50.970;4.962;2022-12-10T04:37:09;69.38;;;21.42;;
19903;SDS011;10114;50.970;4.962;2022-12-10T04:39:39;62.75;;;18.90;;
19903;SDS011;10114;50.970;4.962;2022-12-10T04:42:05;52.88;;;18.85;;
19903;SDS011;10114;50.970;4.962;2022-12-10T04:44:31;61.05;;;20.17;;
19903;SDS011;10114;50.970;4.962;2022-12-10T04:46:57;64.25;;;20.38;;
19903;SDS011;10114;50.970;4.962;2022-12-10T04:49:24;63.70;;;20.92;;
19903;SDS011;10114;50.970;4.962;2022-12-10T04:51:50;63.00;;;20.85;;
19903;SDS011;10114;50.970;4.962;2022-12-10T04:54:18;57.22;;;18.98;;
19903;SDS011;10114;50.970;4.962;2022-12-10T04:56:44;68.85;;;19.25;;
19903;SDS011;10114;50.970;4.962;2022-12-10T04:59:11;70.72;;;20.58;;
19903;SDS011;10114;50.970;4.962;2022-12-10T05:01:37;77.13;;;20.98;;
19903;SDS011;10114;50.970;4.962;2022-12-10T05:04:04;62.15;;;19.85;;
19903;SDS011;10114;50.970;4.962;2022-12-10T05:06:31;57.88;;;19.25;;
19903;SDS011;10114;50.970;4.962;2022-12-10T05:08:57;60.50;;;20.13;;
19903;SDS011;10114;50.970;4.962;2022-12-10T05:11:25;66.85;;;21.05;;
19903;SDS011;10114;50.970;4.962;2022-12-10T05:13:52;56.65;;;17.35;;
19903;SDS011;10114;50.970;4.962;2022-12-10T05:16:18;54.63;;;17.85;;
19903;SDS011;10114;50.970;4.962;2022-12-10T05:18:45;52.60;;;18.73;;
19903;SDS011;10114;50.970;4.962;2022-12-10T05:21:12;57.97;;;18.13;;
19903;SDS011;10114;50.970;4.962;2022-12-10T05:23:39;55.72;;;17.52;;
19903;SDS011;10114;50.970;4.962;2022-12-10T05:26:07;55.50;;;18.45;;
19903;SDS011;10114;50.970;4.962;2022-12-10T05:28:37;58.90;;;18.08;;
19903;SDS011;10114;50.970;4.962;2022-12-10T05:31:03;49.45;;;16.40;;
19903;SDS011;10114;50.970;4.962;2022-12-10T05:33:30;54.72;;;17.45;;
19903;SDS011;10114;50.970;4.962;2022-12-10T05:35:57;41.15;;;13.32;;
19903;SDS011;10114;50.970;4.962;2022-12-10T05:38:24;44.80;;;15.40;;
19903;SDS011;10114;50.970;4.962;2022-12-10T05:40:50;49.72;;;15.90;;
19903;SDS011;10114;50.970;4.962;2022-12-10T05:43:16;53.65;;;16.60;;
19903;SDS011;10114;50.970;4.962;2022-12-10T05:45:42;45.95;;;16.27;;
19903;SDS011;10114;50.970;4.962;2022-12-10T05:48:12;59.22;;;19.73;;
19903;SDS011;10114;50.970;4.962;2022-12-10T05:50:38;60.72;;;19.48;;
19903;SDS011;10114;50.970;4.962;2022-12-10T05:53:04;56.47;;;18.25;;
19903;SDS011;10114;50.970;4.962;2022-12-10T05:55:30;55.92;;;17.88;;
19903;SDS011;10114;50.970;4.962;2022-12-10T05:57:58;60.28;;;19.00;;
19903;SDS011;10114;50.970;4.962;2022-12-10T06:00:24;54.95;;;18.23;;
19903;SDS011;10114;50.970;4.962;2022-12-10T06:02:50;67.15;;;19.73;;
19903;SDS011;10114;50.970;4.962;2022-12-10T06:05:16;61.53;;;18.63;;
19903;SDS011;10114;50.970;4.962;2022-12-10T06:07:42;56.65;;;16.90;;
19903;SDS011;10114;50.970;4.962;2022-12-10T06:10:08;50.28;;;16.92;;
19903;SDS011;10114;50.970;4.962;2022-12-10T06:12:35;56.15;;;17.25;;
19903;SDS011;10114;50.970;4.962;2022-12-10T06:15:01;50.55;;;14.73;;
19903;SDS011;10114;50.970;4.962;2022-12-10T06:17:27;54.53;;;15.07;;
19903;SDS011;10114;50.970;4.962;2022-12-10T06:19:53;55.65;;;16.98;;
19903;SDS011;10114;50.970;4.962;2022-12-10T06:22:19;56.10;;;17.00;;
19903;SDS011;10114;50.970;4.962;2022-12-10T06:24:45;47.03;;;15.68;;
19903;SDS011;10114;50.970;4.962;2022-12-10T06:27:11;45.80;;;15.13;;
19903;SDS011;10114;50.970;4.962;2022-12-10T06:29:37;53.20;;;17.05;;
19903;SDS011;10114;50.970;4.962;2022-12-10T06:32:03;56.38;;;15.63;;
19903;SDS011;10114;50.970;4.962;2022-12-10T06:34:29;61.17;;;17.67;;
19903;SDS011;10114;50.970;4.962;2022-12-10T06:36:55;45.22;;;15.45;;
19903;SDS011;10114;50.970;4.962;2022-12-10T06:39:21;47.70;;;16.05;;
19903;SDS011;10114;50.970;4.962;2022-12-10T06:41:47;52.20;;;16.77;;
19903;SDS011;10114;50.970;4.962;2022-12-10T06:44:13;69.28;;;15.73;;
19903;SDS011;10114;50.970;4.962;2022-12-10T06:46:40;52.28;;;16.17;;
19903;SDS011;10114;50.970;4.962;2022-12-10T06:49:06;65.45;;;15.27;;
19903;SDS011;10114;50.970;4.962;2022-12-10T06:51:32;61.88;;;15.65;;
19903;SDS011;10114;50.970;4.962;2022-12-10T06:53:58;72.78;;;17.23;;
19903;SDS011;10114;50.970;4.962;2022-12-10T06:56:24;59.58;;;16.05;;
19903;SDS011;10114;50.970;4.962;2022-12-10T06:58:51;56.70;;;16.42;;
19903;SDS011;10114;50.970;4.962;2022-12-10T07:01:21;56.60;;;15.65;;
19903;SDS011;10114;50.970;4.962;2022-12-10T07:03:51;92.75;;;19.75;;
19903;SDS011;10114;50.970;4.962;2022-12-10T07:06:18;65.47;;;16.90;;
19903;SDS011;10114;50.970;4.962;2022-12-10T07:08:44;62.25;;;17.90;;
19903;SDS011;10114;50.970;4.962;2022-12-10T07:11:11;110.35;;;19.25;;
19903;SDS011;10114;50.970;4.962;2022-12-10T07:13:37;78.10;;;17.45;;
19903;SDS011;10114;50.970;4.962;2022-12-10T07:16:18;89.13;;;19.55;;
19903;SDS011;10114;50.970;4.962;2022-12-10T07:18:44;90.78;;;18.10;;
19903;SDS011;10114;50.970;4.962;2022-12-10T07:21:14;69.60;;;17.80;;
19903;SDS011;10114;50.970;4.962;2022-12-10T07:23:41;83.75;;;17.75;;
19903;SDS011;10114;50.970;4.962;2022-12-10T07:26:07;66.07;;;17.48;;
19903;SDS011;10114;50.970;4.962;2022-12-10T07:28:33;78.38;;;17.75;;
19903;SDS011;10114;50.970;4.962;2022-12-10T07:31:06;124.78;;;18.70;;
19903;SDS011;10114;50.970;4.962;2022-12-10T07:33:33;87.50;;;17.92;;
19903;SDS011;10114;50.970;4.962;2022-12-10T07:36:02;92.85;;;19.30;;
19903;SDS011;10114;50.970;4.962;2022-12-10T07:38:28;103.97;;;17.85;;
19903;SDS011;10114;50.970;4.962;2022-12-10T07:40:54;142.73;;;20.63;;
19903;SDS011;10114;50.970;4.962;2022-12-10T07:43:20;114.15;;;20.33;;
19903;SDS011;10114;50.970;4.962;2022-12-10T07:45:46;102.05;;;18.38;;
19903;SDS011;10114;50.970;4.962;2022-12-10T07:48:12;79.30;;;18.33;;
19903;SDS011;10114;50.970;4.962;2022-12-10T07:50:39;162.38;;;23.50;;
19903;SDS011;10114;50.970;4.962;2022-12-10T07:53:05;91.53;;;19.90;;
19903;SDS011;10114;50.970;4.962;2022-12-10T07:55:31;136.50;;;21.85;;
19903;SDS011;10114;50.970;4.962;2022-12-10T07:57:57;93.10;;;20.10;;
19903;SDS011;10114;50.970;4.962;2022-12-10T08:00:23;130.30;;;22.58;;
19903;SDS011;10114;50.970;4.962;2022-12-10T08:02:49;116.10;;;20.33;;
19903;SDS011;10114;50.970;4.962;2022-12-10T08:05:15;154.20;;;21.98;;
19903;SDS011;10114;50.970;4.962;2022-12-10T08:07:41;136.35;;;20.75;;
19903;SDS011;10114;50.970;4.962;2022-12-10T08:10:07;98.43;;;20.20;;
19903;SDS011;10114;50.970;4.962;2022-12-10T08:12:33;160.80;;;22.42;;
19903;SDS011;10114;50.970;4.962;2022-12-10T08:14:59;146.20;;;22.45;;
19903;SDS011;10114;50.970;4.962;2022-12-10T08:17:27;104.78;;;19.88;;
19903;SDS011;10114;50.970;4.962;2022-12-10T08:19:53;131.40;;;20.35;;
19903;SDS011;10114;50.970;4.962;2022-12-10T08:22:20;108.05;;;19.25;;
19903;SDS011;10114;50.970;4.962;2022-12-10T08:24:46;129.50;;;20.70;;
19903;SDS011;10114;50.970;4.962;2022-12-10T08:27:12;102.03;;;14.90;;
19903;SDS011;10114;50.970;4.962;2022-12-10T08:29:38;106.53;;;19.48;;
19903;SDS011;10114;50.970;4.962;2022-12-10T08:32:04;95.20;;;16.38;;
19903;SDS011;10114;50.970;4.962;2022-12-10T08:34:30;84.78;;;17.70;;
19903;SDS011;10114;50.970;4.962;2022-12-10T08:36:56;123.15;;;18.17;;
19903;SDS011;10114;50.970;4.962;2022-12-10T08:39:22;130.77;;;20.98;;
19903;SDS011;10114;50.970;4.962;2022-12-10T08:41:48;84.93;;;18.80;;
19903;SDS011;10114;50.970;4.962;2022-12-10T08:44:14;149.43;;;22.80;;
19903;SDS011;10114;50.970;4.962;2022-12-10T08:46:40;144.10;;;24.05;;
19903;SDS011;10114;50.970;4.962;2022-12-10T08:49:06;147.70;;;23.27;;
19903;SDS011;10114;50.970;4.962;2022-12-10T08:51:32;154.90;;;22.35;;
19903;SDS011;10114;50.970;4.962;2022-12-10T08:53:59;194.02;;;25.92;;
19903;SDS011;10114;50.970;4.962;2022-12-10T08:56:25;109.95;;;20.52;;
19903;SDS011;10114;50.970;4.962;2022-12-10T08:58:51;112.68;;;22.45;;
19903;SDS011;10114;50.970;4.962;2022-12-10T09:01:17;115.32;;;21.25;;
19903;SDS011;10114;50.970;4.962;2022-12-10T09:03:44;86.60;;;19.17;;
19903;SDS011;10114;50.970;4.962;2022-12-10T09:06:11;78.72;;;17.80;;
19903;SDS011;10114;50.970;4.962;2022-12-10T09:08:38;77.22;;;19.75;;
19903;SDS011;10114;50.970;4.962;2022-12-10T09:11:08;98.75;;;22.98;;
19903;SDS011;10114;50.970;4.962;2022-12-10T09:13:34;115.43;;;22.15;;
19903;SDS011;10114;50.970;4.962;2022-12-10T09:16:00;77.40;;;20.70;;
19903;SDS011;10114;50.970;4.962;2022-12-10T09:18:26;105.88;;;20.27;;
19903;SDS011;10114;50.970;4.962;2022-12-10T09:20:53;92.70;;;21.50;;
19903;SDS011;10114;50.970;4.962;2022-12-10T09:23:19;72.15;;;21.80;;
19903;SDS011;10114;50.970;4.962;2022-12-10T09:25:45;128.13;;;22.95;;
19903;SDS011;10114;50.970;4.962;2022-12-10T09:28:11;93.10;;;21.08;;
19903;SDS011;10114;50.970;4.962;2022-12-10T09:30:37;65.50;;;17.98;;
19903;SDS011;10114;50.970;4.962;2022-12-10T09:33:03;75.93;;;19.55;;
19903;SDS011;10114;50.970;4.962;2022-12-10T09:35:29;79.43;;;19.50;;
19903;SDS011;10114;50.970;4.962;2022-12-10T09:37:56;85.82;;;19.00;;
19903;SDS011;10114;50.970;4.962;2022-12-10T09:40:25;89.65;;;19.88;;
19903;SDS011;10114;50.970;4.962;2022-12-10T09:42:58;90.00;;;19.80;;
19903;SDS011;10114;50.970;4.962;2022-12-10T09:45:31;85.97;;;19.60;;
19903;SDS011;10114;50.970;4.962;2022-12-10T09:50:35;77.85;;;20.38;;
19903;SDS011;10114;50.970;4.962;2022-12-10T09:53:04;83.57;;;18.42;;
19903;SDS011;10114;50.970;4.962;2022-12-10T09:55:36;73.28;;;17.67;;
19903;SDS011;10114;50.970;4.962;2022-12-10T09:58:03;80.50;;;17.15;;
19903;SDS011;10114;50.970;4.962;2022-12-10T10:00:34;75.05;;;17.15;;
19903;SDS011;10114;50.970;4.962;2022-12-10T10:03:01;71.25;;;18.88;;
19903;SDS011;10114;50.970;4.962;2022-12-10T10:05:28;75.85;;;15.85;;
19903;SDS011;10114;50.970;4.962;2022-12-10T10:07:56;89.18;;;19.02;;
19903;SDS011;10114;50.970;4.962;2022-12-10T10:10:30;108.30;;;18.83;;
19903;SDS011;10114;50.970;4.962;2022-12-10T10:13:40;112.88;;;20.50;;
19903;SDS011;10114;50.970;4.962;2022-12-10T10:15:46;68.70;;;16.17;;
19903;SDS011;10114;50.970;4.962;2022-12-10T10:20:39;86.82;;;18.98;;
19903;SDS011;10114;50.970;4.962;2022-12-10T10:23:05;62.08;;;17.92;;
19903;SDS011;10114;50.970;4.962;2022-12-10T10:25:31;77.05;;;18.85;;
19903;SDS011;10114;50.970;4.962;2022-12-10T10:27:57;53.60;;;16.42;;
19903;SDS011;10114;50.970;4.962;2022-12-10T10:30:23;66.03;;;19.35;;
19903;SDS011;10114;50.970;4.962;2022-12-10T10:32:54;80.65;;;18.30;;
19903;SDS011;10114;50.970;4.962;2022-12-10T10:37:46;69.38;;;17.20;;
19903;SDS011;10114;50.970;4.962;2022-12-10T10:40:22;54.38;;;16.45;;
19903;SDS011;10114;50.970;4.962;2022-12-10T10:42:51;69.95;;;16.95;;
19903;SDS011;10114;50.970;4.962;2022-12-10T10:50:41;62.40;;;18.17;;
19903;SDS011;10114;50.970;4.962;2022-12-10T10:55:46;78.22;;;15.95;;
19903;SDS011;10114;50.970;4.962;2022-12-10T10:58:19;77.15;;;16.48;;
19903;SDS011;10114;50.970;4.962;2022-12-10T11:00:59;78.68;;;18.38;;
19903;SDS011;10114;50.970;4.962;2022-12-10T11:03:27;53.28;;;15.77;;
19903;SDS011;10114;50.970;4.962;2022-12-10T11:05:53;59.72;;;16.45;;
19903;SDS011;10114;50.970;4.962;2022-12-10T11:08:20;78.18;;;17.85;;
19903;SDS011;10114;50.970;4.962;2022-12-10T11:11:05;58.63;;;18.05;;
19903;SDS011;10114;50.970;4.962;2022-12-10T11:13:33;62.42;;;17.95;;
19903;SDS011;10114;50.970;4.962;2022-12-10T11:16:19;67.40;;;17.33;;
19903;SDS011;10114;50.970;4.962;2022-12-10T11:18:56;69.32;;;17.80;;
19903;SDS011;10114;50.970;4.962;2022-12-10T11:21:26;78.25;;;20.95;;
19903;SDS011;10114;50.970;4.962;2022-12-10T11:23:53;60.20;;;18.83;;
19903;SDS011;10114;50.970;4.962;2022-12-10T11:31:46;65.95;;;16.85;;
19903;SDS011;10114;50.970;4.962;2022-12-10T11:45:15;61.30;;;18.92;;
19903;SDS011;10114;50.970;4.962;2022-12-10T11:47:50;63.40;;;18.63;;
19903;SDS011;10114;50.970;4.962;2022-12-10T11:53:10;53.72;;;17.08;;
19903;SDS011;10114;50.970;4.962;2022-12-10T11:58:28;55.20;;;17.52;;
19903;SDS011;10114;50.970;4.962;2022-12-10T12:16:16;51.53;;;15.02;;
19903;SDS011;10114;50.970;4.962;2022-12-10T12:18:47;54.60;;;17.17;;
19903;SDS011;10114;50.970;4.962;2022-12-10T12:21:14;53.30;;;17.35;;
19903;SDS011;10114;50.970;4.962;2022-12-10T12:26:08;55.28;;;17.40;;
19903;SDS011;10114;50.970;4.962;2022-12-10T12:28:41;49.40;;;16.52;;
19903;SDS011;10114;50.970;4.962;2022-12-10T12:31:11;49.97;;;15.63;;
19903;SDS011;10114;50.970;4.962;2022-12-10T12:36:29;45.55;;;14.98;;
19903;SDS011;10114;50.970;4.962;2022-12-10T12:49:45;47.25;;;13.93;;
19903;SDS011;10114;50.970;4.962;2022-12-10T12:55:15;51.00;;;15.88;;
19903;SDS011;10114;50.970;4.962;2022-12-10T12:57:46;47.75;;;15.75;;
19903;SDS011;10114;50.970;4.962;2022-12-10T13:00:16;45.78;;;16.20;;
19903;SDS011;10114;50.970;4.962;2022-12-10T13:03:00;55.00;;;17.55;;
19903;SDS011;10114;50.970;4.962;2022-12-10T13:05:31;48.35;;;14.55;;
19903;SDS011;10114;50.970;4.962;2022-12-10T13:15:53;43.83;;;14.60;;
19903;SDS011;10114;50.970;4.962;2022-12-10T13:18:33;50.42;;;15.93;;
19903;SDS011;10114;50.970;4.962;2022-12-10T13:27:01;46.38;;;16.08;;
19903;SDS011;10114;50.970;4.962;2022-12-10T13:29:28;48.35;;;15.02;;
19903;SDS011;10114;50.970;4.962;2022-12-10T13:32:04;48.53;;;16.48;;
19903;SDS011;10114;50.970;4.962;2022-12-10T13:34:38;48.33;;;16.25;;
19903;SDS011;10114;50.970;4.962;2022-12-10T13:37:10;56.70;;;17.83;;
19903;SDS011;10114;50.970;4.962;2022-12-10T13:42:26;43.08;;;16.52;;
19903;SDS011;10114;50.970;4.962;2022-12-10T13:55:46;47.63;;;15.13;;
19903;SDS011;10114;50.970;4.962;2022-12-10T14:00:51;52.90;;;17.17;;
19903;SDS011;10114;50.970;4.962;2022-12-10T14:08:32;57.63;;;17.42;;
19903;SDS011;10114;50.970;4.962;2022-12-10T14:10:58;59.45;;;18.55;;
19903;SDS011;10114;50.970;4.962;2022-12-10T14:13:30;56.60;;;16.90;;
19903;SDS011;10114;50.970;4.962;2022-12-10T14:15:57;51.03;;;17.85;;
19903;SDS011;10114;50.970;4.962;2022-12-10T14:18:24;52.97;;;18.08;;
19903;SDS011;10114;50.970;4.962;2022-12-10T14:20:53;60.72;;;19.05;;
19903;SDS011;10114;50.970;4.962;2022-12-10T14:23:21;51.97;;;16.80;;
19903;SDS011;10114;50.970;4.962;2022-12-10T14:26:54;46.78;;;17.15;;
19903;SDS011;10114;50.970;4.962;2022-12-10T14:28:53;54.55;;;17.30;;
19903;SDS011;10114;50.970;4.962;2022-12-10T14:31:31;50.97;;;17.00;;
19903;SDS011;10114;50.970;4.962;2022-12-10T14:34:16;51.95;;;17.25;;
19903;SDS011;10114;50.970;4.962;2022-12-10T14:36:46;49.05;;;15.57;;
19903;SDS011;10114;50.970;4.962;2022-12-10T14:39:47;55.45;;;17.80;;
19903;SDS011;10114;50.970;4.962;2022-12-10T14:42:06;65.93;;;19.52;;
19903;SDS011;10114;50.970;4.962;2022-12-10T14:44:34;51.10;;;16.17;;
19903;SDS011;10114;50.970;4.962;2022-12-10T14:47:05;52.40;;;17.10;;
19903;SDS011;10114;50.970;4.962;2022-12-10T14:49:32;54.97;;;17.77;;
19903;SDS011;10114;50.970;4.962;2022-12-10T14:52:07;62.28;;;19.10;;
19903;SDS011;10114;50.970;4.962;2022-12-10T14:54:34;63.28;;;18.20;;
19903;SDS011;10114;50.970;4.962;2022-12-10T14:57:03;63.35;;;20.13;;
19903;SDS011;10114;50.970;4.962;2022-12-10T14:59:32;60.17;;;18.35;;
19903;SDS011;10114;50.970;4.962;2022-12-10T15:02:03;50.05;;;16.73;;
19903;SDS011;10114;50.970;4.962;2022-12-10T15:04:43;57.20;;;18.13;;
19903;SDS011;10114;50.970;4.962;2022-12-10T15:07:14;56.90;;;18.42;;
19903;SDS011;10114;50.970;4.962;2022-12-10T15:09:42;56.25;;;18.30;;
19903;SDS011;10114;50.970;4.962;2022-12-10T15:12:42;52.13;;;17.10;;
19903;SDS011;10114;50.970;4.962;2022-12-10T15:15:04;56.70;;;18.63;;
19903;SDS011;10114;50.970;4.962;2022-12-10T15:17:41;56.88;;;18.55;;
19903;SDS011;10114;50.970;4.962;2022-12-10T15:20:24;60.83;;;20.33;;
19903;SDS011;10114;50.970;4.962;2022-12-10T15:22:51;49.63;;;15.98;;
19903;SDS011;10114;50.970;4.962;2022-12-10T15:25:22;53.25;;;18.15;;
19903;SDS011;10114;50.970;4.962;2022-12-10T15:27:52;58.08;;;18.92;;
19903;SDS011;10114;50.970;4.962;2022-12-10T15:30:22;57.95;;;18.27;;
19903;SDS011;10114;50.970;4.962;2022-12-10T15:32:49;54.72;;;18.80;;
19903;SDS011;10114;50.970;4.962;2022-12-10T15:35:15;55.80;;;18.55;;
19903;SDS011;10114;50.970;4.962;2022-12-10T15:37:41;44.72;;;15.98;;
19903;SDS011;10114;50.970;4.962;2022-12-10T15:40:23;52.22;;;16.00;;
19903;SDS011;10114;50.970;4.962;2022-12-10T15:42:50;50.90;;;16.63;;
19903;SDS011;10114;50.970;4.962;2022-12-10T15:45:18;54.42;;;18.27;;
19903;SDS011;10114;50.970;4.962;2022-12-10T15:47:45;52.88;;;18.20;;
19903;SDS011;10114;50.970;4.962;2022-12-10T15:50:11;55.58;;;19.27;;
19903;SDS011;10114;50.970;4.962;2022-12-10T15:52:37;50.53;;;16.45;;
19903;SDS011;10114;50.970;4.962;2022-12-10T15:55:04;51.78;;;15.23;;
19903;SDS011;10114;50.970;4.962;2022-12-10T15:57:31;60.78;;;17.17;;
19903;SDS011;10114;50.970;4.962;2022-12-10T15:59:59;70.38;;;19.48;;
19903;SDS011;10114;50.970;4.962;2022-12-10T16:04:54;54.17;;;18.02;;
19903;SDS011;10114;50.970;4.962;2022-12-10T16:07:20;63.78;;;20.50;;
19903;SDS011;10114;50.970;4.962;2022-12-10T16:09:46;68.10;;;21.55;;
19903;SDS011;10114;50.970;4.962;2022-12-10T16:12:13;63.97;;;20.05;;
19903;SDS011;10114;50.970;4.962;2022-12-10T16:14:57;65.03;;;19.52;;
19903;SDS011;10114;50.970;4.962;2022-12-10T16:17:28;60.45;;;18.38;;
19903;SDS011;10114;50.970;4.962;2022-12-10T16:19:58;58.58;;;17.70;;
19903;SDS011;10114;50.970;4.962;2022-12-10T16:22:24;63.25;;;18.77;;
19903;SDS011;10114;50.970;4.962;2022-12-10T16:24:50;70.80;;;20.02;;
19903;SDS011;10114;50.970;4.962;2022-12-10T16:27:16;65.57;;;18.65;;
19903;SDS011;10114;50.970;4.962;2022-12-10T16:29:43;70.53;;;21.05;;
19903;SDS011;10114;50.970;4.962;2022-12-10T16:32:09;77.60;;;24.45;;
19903;SDS011;10114;50.970;4.962;2022-12-10T16:34:36;67.15;;;20.17;;
19903;SDS011;10114;50.970;4.962;2022-12-10T16:37:02;63.05;;;20.08;;
19903;SDS011;10114;50.970;4.962;2022-12-10T16:39:29;52.35;;;17.25;;
19903;SDS011;10114;50.970;4.962;2022-12-10T16:41:55;65.93;;;21.52;;
19903;SDS011;10114;50.970;4.962;2022-12-10T16:44:21;56.35;;;19.20;;
19903;SDS011;10114;50.970;4.962;2022-12-10T16:46:47;54.33;;;19.02;;
19903;SDS011;10114;50.970;4.962;2022-12-10T16:49:13;66.70;;;21.73;;